Terminal Aerodrome Forecast
Issued by NWS Glasgow, MT

Home | Current Version | Previous Version | Text Only | Print | Product List | Glossary On
Versions: 1 2 3 4 5 6 7 8 9 10 11 12
183
FTUS45 KGGW 191120
TAFGGW
TAF
KGGW 191120Z 1912/2012 VRB05KT P6SM SCT200
     FM191600 19006KT P6SM SCT190
     FM191800 24008KT P6SM SCT170
     FM200200 20006KT P6SM SCT130
     FM200300 20006KT P6SM SCT150 WS020/26035KT
     FM200800 23008KT P6SM BKN160 WS020/27045KT=

USA.gov is the U.S. government's official web portal to all federal, state and local government web resources and services.